Time;durP1;ratioP1;P1;durP2;ratioP2;P2;SDS_P1;SDS_P2;PMS_P1;PMS_P2;Temp;Humidity;BMP_temperature;BMP_pressure;BME280_temperature;BME280_humidity;BME280_pressure;Samples;Min_cycle;Max_cycle;Signal;HPM_P1;HPM_P2
2021/11/06 00:02:17;;;;;;;57.55;25.52;;;14.50;99.90;;;;;;5077030;28;20035;-85
2021/11/06 00:04:43;;;;;;;54.47;24.45;;;14.50;99.90;;;;;;5095683;28;20478;-84
2021/11/06 00:07:08;;;;;;;50.67;22.08;;;14.50;99.90;;;;;;5078802;28;20063;-87
2021/11/06 00:09:35;;;;;;;58.00;23.73;;;14.40;99.90;;;;;;5074810;28;20028;-85
2021/11/06 00:12:01;;;;;;;57.38;25.65;;;14.50;99.90;;;;;;5056997;28;20029;-84
2021/11/06 00:14:28;;;;;;;56.17;24.80;;;14.40;99.90;;;;;;5056344;28;20093;-85
2021/11/06 00:16:54;;;;;;;53.35;23.20;;;14.50;99.90;;;;;;5056952;28;20025;-87
2021/11/06 00:19:20;;;;;;;52.05;22.00;;;14.40;99.90;;;;;;5075103;28;20064;-84
2021/11/06 00:21:49;;;;;;;49.25;20.77;;;14.40;99.90;;;;;;5074374;28;20466;-84
2021/11/06 00:24:15;;;;;;;51.63;21.10;;;14.40;99.90;;;;;;5056799;28;20351;-85
2021/11/06 00:26:41;;;;;;;53.25;20.83;;;14.40;99.90;;;;;;5056294;28;20078;-85
2021/11/06 00:29:06;;;;;;;53.63;22.17;;;14.40;99.90;;;;;;5074568;28;20032;-86
2021/11/06 00:31:32;;;;;;;64.57;25.08;;;14.40;99.90;;;;;;5075152;28;20433;-86
2021/11/06 00:33:58;;;;;;;60.83;25.17;;;14.40;99.90;;;;;;5056650;28;20098;-86
2021/11/06 00:36:26;;;;;;;55.83;22.60;;;14.40;99.90;;;;;;5056537;28;20420;-86
2021/11/06 00:38:53;;;;;;;54.28;22.17;;;14.40;99.90;;;;;;5056411;28;20405;-86
2021/11/06 00:41:18;;;;;;;55.38;22.00;;;14.40;99.90;;;;;;5074156;28;20025;-87
2021/11/06 00:43:44;;;;;;;52.47;22.20;;;14.40;99.90;;;;;;5056140;28;20024;-86
2021/11/06 00:46:11;;;;;;;65.70;24.30;;;14.40;99.90;;;;;;5055892;28;20565;-86
2021/11/06 00:48:37;;;;;;;58.95;21.30;;;14.40;99.90;;;;;;5056276;28;20043;-86
2021/11/06 00:51:03;;;;;;;49.65;19.92;;;14.40;99.90;;;;;;5056592;28;20044;-86
2021/11/06 00:53:28;;;;;;;70.88;23.65;;;14.40;99.90;;;;;;5056344;28;20020;-86
2021/11/06 00:55:54;;;;;;;50.58;19.27;;;14.40;99.90;;;;;;5055709;28;20067;-86
2021/11/06 00:58:20;;;;;;;53.67;20.67;;;14.30;99.90;;;;;;5055511;28;20478;-87
2021/11/06 01:00:46;;;;;;;47.22;19.88;;;14.30;99.90;;;;;;5055687;28;20484;-86
2021/11/06 01:03:11;;;;;;;49.45;20.05;;;14.30;99.90;;;;;;5055490;28;20028;-86
2021/11/06 01:05:37;;;;;;;51.15;19.02;;;14.30;99.90;;;;;;5056002;28;20033;-86
2021/11/06 01:08:04;;;;;;;53.50;18.98;;;14.30;99.90;;;;;;5039323;28;20055;-85
2021/11/06 01:10:30;;;;;;;71.28;21.48;;;14.40;99.90;;;;;;5055873;28;20086;-84
2021/11/06 01:12:56;;;;;;;40.40;16.30;;;14.30;99.90;;;;;;5074118;28;20036;-84
2021/11/06 01:15:22;;;;;;;46.25;17.00;;;14.30;99.90;;;;;;5055675;28;20056;-85
2021/11/06 01:17:47;;;;;;;48.90;19.13;;;14.30;99.90;;;;;;5055389;28;20059;-85
2021/11/06 01:20:15;;;;;;;65.45;20.95;;;14.30;99.90;;;;;;5073490;28;20071;-85
2021/11/06 01:22:41;;;;;;;56.50;21.75;;;14.30;99.90;;;;;;5055730;28;20029;-85
2021/11/06 01:25:07;;;;;;;92.25;23.58;;;14.30;99.90;;;;;;5055997;28;20086;-85
2021/11/06 01:27:34;;;;;;;59.85;20.63;;;14.30;99.90;;;;;;5074025;28;20103;-84
2021/11/06 01:30:00;;;;;;;67.00;21.00;;;14.20;99.90;;;;;;5073771;28;20406;-84
2021/11/06 01:32:26;;;;;;;59.63;20.58;;;14.20;99.90;;;;;;5055364;28;20071;-85
2021/11/06 01:34:51;;;;;;;56.33;18.95;;;14.20;99.90;;;;;;5073162;28;20032;-85
2021/11/06 01:37:17;;;;;;;76.32;20.73;;;14.20;99.90;;;;;;5076738;28;20033;-85
2021/11/06 01:39:43;;;;;;;40.35;15.70;;;14.20;99.90;;;;;;5055430;28;20040;-84
2021/11/06 01:42:09;;;;;;;56.75;17.73;;;14.20;99.90;;;;;;5073626;28;20036;-84
2021/11/06 01:44:34;;;;;;;60.10;18.10;;;14.20;99.90;;;;;;5055600;28;20431;-85
2021/11/06 01:47:00;;;;;;;47.38;19.05;;;14.20;99.90;;;;;;5055627;28;20040;-86
2021/11/06 01:49:26;;;;;;;60.47;18.60;;;14.20;99.90;;;;;;5055375;28;20081;-86
2021/11/06 01:51:53;;;;;;;44.13;17.38;;;14.20;99.90;;;;;;5055423;28;20107;-86
2021/11/06 01:54:23;;;;;;;59.78;17.85;;;14.10;99.90;;;;;;5073511;28;20021;-86
2021/11/06 01:56:50;;;;;;;54.75;16.90;;;14.10;99.90;;;;;;5056642;28;20431;-86
2021/11/06 01:59:16;;;;;;;47.00;18.23;;;14.10;99.90;;;;;;5055356;28;20048;-85
2021/11/06 02:01:42;;;;;;;55.92;19.52;;;14.10;99.90;;;;;;5055498;28;20029;-84
2021/11/06 02:04:08;;;;;;;87.68;22.98;;;14.20;99.90;;;;;;5055557;28;20085;-84
2021/11/06 02:06:33;;;;;;;46.20;18.83;;;14.10;99.90;;;;;;5055041;28;20108;-84
2021/11/06 02:09:00;;;;;;;48.97;19.02;;;14.10;99.90;;;;;;5055177;28;20115;-86
2021/11/06 02:11:27;;;;;;;71.40;20.48;;;14.10;99.90;;;;;;5056455;28;20119;-86
2021/11/06 02:13:53;;;;;;;59.03;17.35;;;14.10;99.90;;;;;;5059277;28;20028;-86
2021/11/06 02:16:18;;;;;;;47.88;18.08;;;14.10;99.90;;;;;;5059431;28;20043;-84
2021/11/06 02:18:47;;;;;;;33.50;14.32;;;14.10;99.90;;;;;;5076588;28;20378;-85
2021/11/06 02:21:13;;;;;;;43.85;14.32;;;14.10;99.90;;;;;;5096960;28;20047;-83
2021/11/06 02:23:41;;;;;;;78.18;18.48;;;14.10;99.90;;;;;;5078956;28;20081;-84
2021/11/06 02:26:09;;;;;;;47.38;17.95;;;14.10;99.90;;;;;;5097172;28;20031;-85
2021/11/06 02:28:35;;;;;;;47.53;16.80;;;14.10;99.90;;;;;;5097105;28;20125;-84
2021/11/06 02:31:00;;;;;;;41.22;15.60;;;14.10;99.90;;;;;;5078918;28;20137;-84
2021/11/06 02:33:26;;;;;;;29.65;15.13;;;14.10;99.90;;;;;;5078463;28;20519;-84
2021/11/06 02:35:52;;;;;;;32.28;15.25;;;14.10;99.90;;;;;;5078889;28;20024;-84
2021/11/06 02:38:18;;;;;;;37.92;19.27;;;14.10;99.90;;;;;;5078762;28;20020;-84
2021/11/06 02:40:44;;;;;;;43.58;20.15;;;14.10;99.90;;;;;;5078720;28;20414;-85
2021/11/06 02:43:10;;;;;;;38.50;19.58;;;14.10;99.90;;;;;;5078079;28;20028;-84
2021/11/06 02:45:37;;;;;;;37.10;18.27;;;14.10;99.90;;;;;;5096629;28;20028;-84
2021/11/06 02:48:04;;;;;;;36.85;19.25;;;14.10;99.90;;;;;;5078709;28;20484;-84
2021/11/06 02:50:32;;;;;;;33.30;19.42;;;14.10;99.90;;;;;;5078067;28;20042;-84
2021/11/06 02:52:58;;;;;;;33.45;19.02;;;14.10;99.90;;;;;;5078874;28;20032;-85
2021/11/06 02:55:24;;;;;;;30.98;17.58;;;14.10;99.90;;;;;;5078822;28;20020;-84
2021/11/06 02:57:50;;;;;;;28.17;17.30;;;14.10;99.90;;;;;;5078505;28;20152;-84
2021/11/06 03:00:17;;;;;;;26.42;16.13;;;14.10;99.90;;;;;;5078837;28;20485;-84
2021/11/06 03:02:43;;;;;;;28.35;16.80;;;14.10;99.90;;;;;;5096313;28;20493;-84
2021/11/06 03:05:12;;;;;;;23.50;15.32;;;14.00;99.90;;;;;;5077983;28;20028;-84
2021/11/06 03:07:39;;;;;;;24.30;14.00;;;14.00;99.90;;;;;;5096384;28;20528;-84
2021/11/06 03:10:07;;;;;;;24.80;14.93;;;13.90;99.90;;;;;;5096442;28;20087;-84
2021/11/06 03:12:34;;;;;;;21.83;13.00;;;14.00;99.90;;;;;;5078183;28;20039;-84
2021/11/06 03:15:00;;;;;;;21.15;14.00;;;13.90;99.90;;;;;;5095890;28;20044;-84
2021/11/06 03:17:26;;;;;;;21.45;13.68;;;13.90;99.90;;;;;;5096047;28;20480;-85
2021/11/06 03:19:52;;;;;;;19.30;12.18;;;13.90;99.90;;;;;;5060933;28;20036;-86
2021/11/06 03:22:18;;;;;;;18.00;12.52;;;13.90;99.90;;;;;;5077478;28;20024;-85
2021/11/06 03:24:43;;;;;;;19.88;12.52;;;13.90;99.90;;;;;;5076253;28;20031;-84
2021/11/06 03:27:09;;;;;;;18.67;12.63;;;13.80;99.90;;;;;;5075661;28;20047;-84
2021/11/06 03:29:35;;;;;;;20.90;12.68;;;13.80;99.90;;;;;;5075540;28;20094;-85
2021/11/06 03:32:02;;;;;;;18.30;12.15;;;13.80;99.90;;;;;;5057583;28;20024;-85
2021/11/06 03:34:27;;;;;;;19.23;12.13;;;13.80;99.90;;;;;;5058508;28;20363;-85
2021/11/06 03:36:53;;;;;;;17.50;11.57;;;13.70;99.90;;;;;;5075260;28;20035;-84
2021/11/06 03:39:20;;;;;;;16.95;10.98;;;13.60;99.90;;;;;;5057875;28;20119;-85
2021/11/06 03:41:47;;;;;;;14.95;10.57;;;13.60;99.90;;;;;;5075625;28;20417;-85
2021/11/06 03:44:13;;;;;;;15.20;10.35;;;13.60;99.90;;;;;;5057482;28;20444;-86
2021/11/06 03:46:39;;;;;;;16.85;9.75;;;13.50;99.90;;;;;;5074754;28;20120;-85
2021/11/06 03:49:05;;;;;;;13.73;9.07;;;13.50;99.90;;;;;;5056975;28;20390;-86
2021/11/06 03:51:31;;;;;;;13.02;8.52;;;13.40;99.90;;;;;;5057370;28;20366;-85
2021/11/06 03:53:57;;;;;;;11.35;8.23;;;13.40;99.90;;;;;;5057688;28;20031;-85
2021/11/06 03:56:23;;;;;;;11.80;8.40;;;13.30;99.90;;;;;;5057147;28;20048;-86
2021/11/06 03:58:50;;;;;;;11.13;7.57;;;13.20;99.90;;;;;;5074982;28;20058;-84
2021/11/06 04:01:16;;;;;;;10.68;7.47;;;13.20;99.90;;;;;;5057186;28;20467;-85
2021/11/06 04:03:42;;;;;;;11.00;7.57;;;13.00;99.90;;;;;;5057016;28;20060;-86
2021/11/06 04:06:08;;;;;;;9.35;6.18;;;12.80;99.90;;;;;;5056618;28;20056;-85
2021/11/06 04:08:34;;;;;;;12.70;7.10;;;12.70;99.90;;;;;;5058592;28;20106;-83
2021/11/06 04:11:00;;;;;;;9.13;6.30;;;12.60;99.90;;;;;;5058464;28;20058;-83
2021/11/06 04:13:25;;;;;;;7.97;5.80;;;12.40;99.90;;;;;;5074729;28;20025;-83
2021/11/06 04:15:51;;;;;;;9.32;6.00;;;12.30;99.90;;;;;;5056467;28;20131;-84
2021/11/06 04:18:17;;;;;;;7.85;5.43;;;12.20;99.90;;;;;;5074679;28;20078;-83
2021/11/06 04:20:43;;;;;;;11.00;6.18;;;12.10;99.90;;;;;;5074097;28;20094;-84
2021/11/06 04:23:09;;;;;;;8.38;5.60;;;12.00;99.90;;;;;;5074730;28;20028;-83
2021/11/06 04:25:35;;;;;;;7.85;5.50;;;11.80;99.90;;;;;;5056687;28;20024;-85
2021/11/06 04:28:01;;;;;;;6.78;5.25;;;11.70;99.90;;;;;;5056604;28;20074;-84
2021/11/06 04:30:26;;;;;;;7.68;5.30;;;11.60;99.90;;;;;;5074094;28;20032;-83
2021/11/06 04:32:52;;;;;;;6.97;5.10;;;11.50;99.90;;;;;;5073957;28;20432;-84
2021/11/06 04:35:18;;;;;;;6.75;5.00;;;11.40;99.90;;;;;;5056134;28;20031;-84
2021/11/06 04:37:43;;;;;;;6.43;4.80;;;11.30;99.90;;;;;;5055981;28;20021;-84
2021/11/06 04:40:11;;;;;;;6.95;4.95;;;11.20;99.90;;;;;;5073891;28;20420;-84
2021/11/06 04:42:38;;;;;;;7.57;5.00;;;11.10;99.90;;;;;;5073736;28;20035;-84
2021/11/06 04:45:06;;;;;;;6.60;4.85;;;11.00;99.90;;;;;;5072935;28;20032;-84
2021/11/06 04:47:32;;;;;;;6.53;4.40;;;11.00;99.90;;;;;;5073228;28;20024;-84
2021/11/06 04:49:57;;;;;;;6.78;4.97;;;11.00;99.90;;;;;;5056491;28;20034;-84
2021/11/06 04:52:23;;;;;;;8.25;4.82;;;11.00;99.90;;;;;;5074308;28;20059;-85
2021/11/06 04:54:49;;;;;;;6.95;4.25;;;11.00;99.90;;;;;;5056676;28;20028;-84
2021/11/06 04:57:15;;;;;;;6.60;4.78;;;10.90;99.90;;;;;;5055576;28;20529;-84
2021/11/06 04:59:41;;;;;;;6.43;4.50;;;10.90;99.90;;;;;;5056020;28;20029;-84
2021/11/06 05:02:07;;;;;;;6.68;4.45;;;11.00;99.90;;;;;;5073436;28;20364;-84
2021/11/06 05:04:33;;;;;;;6.53;4.43;;;10.90;99.90;;;;;;5071741;28;20070;-84
2021/11/06 05:06:59;;;;;;;6.80;5.18;;;10.90;99.90;;;;;;5093578;28;20032;-84
2021/11/06 05:09:25;;;;;;;6.82;4.80;;;11.00;99.90;;;;;;5075109;28;20089;-83
2021/11/06 05:11:50;;;;;;;9.27;4.47;;;11.00;99.90;;;;;;5075359;28;20433;-84
2021/11/06 05:14:17;;;;;;;6.50;4.40;;;11.00;99.90;;;;;;5093844;28;20052;-83
2021/11/06 05:16:43;;;;;;;7.15;4.65;;;11.00;99.90;;;;;;5093532;28;20552;-84
2021/11/06 05:19:11;;;;;;;7.35;4.78;;;11.00;99.90;;;;;;5075509;28;20024;-83
2021/11/06 05:21:38;;;;;;;6.63;4.70;;;11.10;99.90;;;;;;5093783;28;20454;-83
2021/11/06 05:24:05;;;;;;;7.15;5.15;;;11.00;99.90;;;;;;5075783;28;20032;-83
2021/11/06 05:26:31;;;;;;;6.22;4.80;;;11.00;99.90;;;;;;5093617;28;20024;-85
2021/11/06 05:29:03;;;;;;;11.70;5.00;;;11.00;99.90;;;;;;5095458;28;20107;-84
2021/11/06 05:31:31;;;;;;;6.72;4.32;;;11.00;99.80;;;;;;5094062;28;20119;-84
2021/11/06 05:33:57;;;;;;;6.55;4.65;;;11.00;99.80;;;;;;5075073;28;20056;-83
2021/11/06 05:36:23;;;;;;;6.63;4.45;;;10.90;99.70;;;;;;5075591;28;20543;-83
2021/11/06 05:38:49;;;;;;;6.15;4.07;;;10.90;98.00;;;;;;5056643;28;20067;-86
2021/11/06 05:41:16;;;;;;;5.50;4.07;;;10.90;98.40;;;;;;5074139;28;20474;-85
2021/11/06 05:43:43;;;;;;;5.32;3.88;;;10.90;97.60;;;;;;5074885;28;20024;-84
2021/11/06 05:46:09;;;;;;;4.85;3.67;;;10.90;97.30;;;;;;5077344;28;20078;-85
2021/11/06 05:48:34;;;;;;;5.22;3.70;;;10.90;97.40;;;;;;5079452;28;20024;-84
2021/11/06 05:51:00;;;;;;;6.85;3.92;;;10.90;97.50;;;;;;5097674;28;20541;-84
2021/11/06 05:53:26;;;;;;;4.97;3.53;;;10.90;97.10;;;;;;5079569;28;20458;-84
2021/11/06 05:55:52;;;;;;;5.43;3.90;;;10.80;96.90;;;;;;5079233;28;20412;-83
2021/11/06 05:58:17;;;;;;;4.38;3.38;;;10.80;96.90;;;;;;5079146;28;20063;-83
2021/11/06 06:00:43;;;;;;;6.70;3.80;;;10.80;96.90;;;;;;5079080;28;20035;-84
2021/11/06 06:03:09;;;;;;;5.10;3.70;;;10.80;97.20;;;;;;5097296;28;20016;-83
2021/11/06 06:05:35;;;;;;;6.00;3.55;;;10.80;96.90;;;;;;5079140;28;20115;-83
2021/11/06 06:08:01;;;;;;;5.28;3.60;;;10.80;96.50;;;;;;5078720;28;20032;-89
2021/11/06 06:10:27;;;;;;;6.78;3.92;;;10.80;96.70;;;;;;5073901;28;20037;-88
2021/11/06 06:12:53;;;;;;;5.07;3.47;;;10.80;95.60;;;;;;5060180;28;20036;-85
2021/11/06 06:15:22;;;;;;;4.55;3.35;;;10.70;95.50;;;;;;5058423;28;20067;-84
2021/11/06 06:17:50;;;;;;;4.80;3.40;;;10.70;95.50;;;;;;5059864;28;20032;-83
2021/11/06 06:20:18;;;;;;;5.20;3.45;;;10.70;95.50;;;;;;5058906;28;20378;-84
2021/11/06 06:22:45;;;;;;;4.60;3.28;;;10.70;95.90;;;;;;5059293;28;20095;-84
2021/11/06 06:25:12;;;;;;;5.32;3.58;;;10.70;96.20;;;;;;5058839;28;20028;-85
2021/11/06 06:27:39;;;;;;;4.60;3.35;;;10.70;96.20;;;;;;5076440;28;20021;-84
2021/11/06 06:30:07;;;;;;;4.88;3.15;;;10.70;95.70;;;;;;5058437;28;20119;-85
2021/11/06 06:32:33;;;;;;;4.78;3.33;;;10.60;95.20;;;;;;5057822;28;20031;-83
2021/11/06 06:34:58;;;;;;;4.53;3.10;;;10.60;95.60;;;;;;5074518;28;20029;-84
2021/11/06 06:37:25;;;;;;;4.80;3.05;;;10.60;95.60;;;;;;5075330;28;20039;-86
2021/11/06 06:39:51;;;;;;;3.03;2.65;;;10.60;95.90;;;;;;5074783;28;20334;-83
2021/11/06 06:42:17;;;;;;;3.95;2.63;;;10.60;95.30;;;;;;5057318;28;20028;-83
2021/11/06 06:44:44;;;;;;;3.30;2.55;;;10.60;95.10;;;;;;5057158;28;20043;-82
2021/11/06 06:47:12;;;;;;;4.18;3.00;;;10.50;95.10;;;;;;5058359;28;20024;-84
2021/11/06 06:49:38;;;;;;;3.63;2.63;;;10.50;95.10;;;;;;5058064;28;20062;-82
2021/11/06 06:52:04;;;;;;;4.03;2.80;;;10.50;95.30;;;;;;5056247;28;20029;-84
2021/11/06 06:54:30;;;;;;;3.13;2.70;;;10.50;95.40;;;;;;5057144;28;20751;-83
2021/11/06 06:56:55;;;;;;;3.65;2.78;;;10.50;95.50;;;;;;5056683;28;20033;-83
2021/11/06 06:59:21;;;;;;;5.32;3.00;;;10.50;95.50;;;;;;5075487;28;20028;-83
2021/11/06 07:01:47;;;;;;;4.70;3.08;;;10.50;95.10;;;;;;5075977;28;20024;-84
2021/11/06 07:04:14;;;;;;;4.22;2.80;;;10.50;95.20;;;;;;5075966;28;20021;-85
2021/11/06 07:06:39;;;;;;;5.07;3.05;;;10.50;95.70;;;;;;5057759;28;20029;-85
2021/11/06 07:09:05;;;;;;;3.72;2.75;;;10.50;95.40;;;;;;5075768;28;20031;-85
2021/11/06 07:11:31;;;;;;;3.83;2.80;;;10.50;95.60;;;;;;5057928;28;20032;-85
2021/11/06 07:13:57;;;;;;;4.15;2.60;;;10.50;95.90;;;;;;5077126;28;20017;-86
2021/11/06 07:16:23;;;;;;;4.70;2.90;;;10.60;96.30;;;;;;5080870;28;20024;-85
2021/11/06 07:18:49;;;;;;;5.40;3.63;;;10.60;96.30;;;;;;5059551;28;20024;-85
2021/11/06 07:21:14;;;;;;;4.35;3.10;;;10.60;96.70;;;;;;5077808;28;20123;-85
2021/11/06 07:23:58;;;;;;;3.72;2.72;;;10.70;96.70;;;;;;5095918;28;20358;-83
2021/11/06 07:26:24;;;;;;;4.05;2.70;;;10.80;94.90;;;;;;5067821;28;20028;-83
2021/11/06 07:28:50;;;;;;;3.88;2.65;;;10.80;95.80;;;;;;5057426;28;20526;-84
2021/11/06 07:31:16;;;;;;;4.05;2.42;;;10.80;95.60;;;;;;5057623;28;20021;-84
2021/11/06 07:33:42;;;;;;;3.75;2.60;;;10.80;94.90;;;;;;5057452;28;20024;-84
2021/11/06 07:36:10;;;;;;;4.00;3.03;;;10.80;94.40;;;;;;5073956;28;20035;-85
2021/11/06 07:38:36;;;;;;;4.45;2.80;;;10.80;94.70;;;;;;5057250;28;20386;-85
2021/11/06 07:41:02;;;;;;;3.58;2.80;;;10.80;94.80;;;;;;5057609;28;20074;-84
2021/11/06 07:43:28;;;;;;;4.25;2.97;;;10.80;94.60;;;;;;5057191;28;20111;-83
2021/11/06 07:45:53;;;;;;;3.78;2.58;;;10.80;94.10;;;;;;5057309;28;20059;-83
2021/11/06 07:48:19;;;;;;;3.15;2.65;;;10.80;94.10;;;;;;5075058;28;20093;-84
2021/11/06 07:50:45;;;;;;;3.90;2.80;;;10.90;94.10;;;;;;5056842;28;20051;-84
2021/11/06 07:53:20;;;;;;;5.35;3.25;;;10.80;93.90;;;;;;5084438;28;20024;-84
2021/11/06 07:55:46;;;;;;;4.07;2.88;;;10.90;94.10;;;;;;5077068;28;20024;-84
2021/11/06 07:58:14;;;;;;;3.95;2.90;;;10.90;94.20;;;;;;5077158;28;20141;-84
2021/11/06 08:00:40;;;;;;;4.35;3.08;;;10.90;93.70;;;;;;5077108;28;20115;-85
2021/11/06 08:03:06;;;;;;;4.03;2.95;;;10.90;93.70;;;;;;5076975;28;20024;-84
2021/11/06 08:05:32;;;;;;;4.43;3.00;;;10.90;93.90;;;;;;5076832;28;20032;-83
2021/11/06 08:07:58;;;;;;;3.78;2.80;;;11.00;93.90;;;;;;5094893;28;20024;-84
2021/11/06 08:10:24;;;;;;;5.18;3.22;;;11.00;93.80;;;;;;5094140;28;20034;-84
2021/11/06 08:12:50;;;;;;;4.30;3.30;;;11.10;93.80;;;;;;5076859;28;20039;-85
2021/11/06 08:15:16;;;;;;;4.18;3.00;;;11.10;93.60;;;;;;5094763;28;20048;-85
2021/11/06 08:17:42;;;;;;;4.32;3.13;;;11.20;93.50;;;;;;5076316;28;20020;-84
2021/11/06 08:20:09;;;;;;;4.80;3.13;;;11.30;94.00;;;;;;5076724;28;20127;-83
2021/11/06 08:22:36;;;;;;;4.20;2.95;;;11.30;93.90;;;;;;5076409;28;20067;-85
2021/11/06 08:25:03;;;;;;;4.70;2.95;;;11.40;94.20;;;;;;5076630;28;20031;-84
2021/11/06 08:27:28;;;;;;;5.15;2.85;;;11.60;94.10;;;;;;5076482;28;20068;-85
2021/11/06 08:29:54;;;;;;;3.67;2.90;;;11.70;93.90;;;;;;5076172;28;20059;-83
2021/11/06 08:32:20;;;;;;;3.88;2.80;;;11.80;94.50;;;;;;5076229;28;20036;-84
2021/11/06 08:34:45;;;;;;;4.43;3.00;;;12.10;94.70;;;;;;5094602;28;20024;-84
2021/11/06 08:37:11;;;;;;;6.22;3.20;;;12.30;94.90;;;;;;5094903;28;20571;-83
2021/11/06 08:39:37;;;;;;;3.42;2.70;;;12.80;96.20;;;;;;5087965;28;20028;-84
2021/11/06 08:42:03;;;;;;;3.55;2.70;;;13.40;96.90;;;;;;5074002;28;20473;-85
2021/11/06 08:44:29;;;;;;;3.10;2.67;;;14.00;94.70;;;;;;5055800;28;20032;-84
2021/11/06 08:46:55;;;;;;;3.50;2.90;;;14.40;91.50;;;;;;5056037;28;20029;-85
2021/11/06 08:49:22;;;;;;;4.70;2.70;;;14.60;90.30;;;;;;5073804;28;20043;-84
2021/11/06 08:51:52;;;;;;;4.68;2.63;;;14.80;88.10;;;;;;5072797;28;20036;-86
2021/11/06 08:54:18;;;;;;;3.72;2.80;;;14.90;86.50;;;;;;5074513;28;20046;-82
2021/11/06 08:56:45;;;;;;;4.35;3.15;;;15.20;86.50;;;;;;5076848;28;20165;-84
2021/11/06 08:59:14;;;;;;;4.63;2.67;;;15.60;83.40;;;;;;5075474;28;20039;-85
2021/11/06 09:01:40;;;;;;;4.95;2.90;;;15.80;82.00;;;;;;5076980;28;20029;-83
2021/11/06 09:04:05;;;;;;;2.78;2.40;;;15.80;80.80;;;;;;5073771;28;20035;-83
2021/11/06 09:06:33;;;;;;;4.38;2.90;;;15.70;78.90;;;;;;5055949;28;20478;-84
2021/11/06 09:09:02;;;;;;;3.67;2.63;;;15.40;78.00;;;;;;5055661;28;20032;-85
2021/11/06 09:11:28;;;;;;;3.25;2.50;;;15.30;78.20;;;;;;5055895;28;20059;-85
2021/11/06 09:13:56;;;;;;;3.70;2.70;;;15.20;78.40;;;;;;5055642;28;20109;-84
2021/11/06 09:16:22;;;;;;;3.42;2.58;;;15.00;77.70;;;;;;5055359;28;20048;-84
2021/11/06 09:18:49;;;;;;;5.88;2.83;;;15.00;78.00;;;;;;5073566;28;20052;-85
2021/11/06 09:21:15;;;;;;;3.92;2.90;;;15.00;78.10;;;;;;5073505;28;20108;-86
2021/11/06 09:23:42;;;;;;;4.47;2.90;;;15.00;76.60;;;;;;5073533;28;20472;-85
2021/11/06 09:26:09;;;;;;;4.38;2.88;;;15.10;76.20;;;;;;5055960;28;20040;-84
2021/11/06 09:28:42;;;;;;;4.20;2.90;;;15.00;75.60;;;;;;5055388;28;20441;-85
2021/11/06 09:31:09;;;;;;;4.10;3.15;;;14.90;76.20;;;;;;5055889;28;20051;-83
2021/11/06 09:33:36;;;;;;;3.88;2.85;;;15.10;76.90;;;;;;5073385;28;20032;-83
2021/11/06 09:36:02;;;;;;;4.80;3.13;;;15.40;76.90;;;;;;5073336;28;20025;-84
2021/11/06 09:38:28;;;;;;;4.82;3.15;;;15.90;76.10;;;;;;5065833;28;20101;-84
2021/11/06 09:40:58;;;;;;;4.38;3.30;;;16.50;75.10;;;;;;5055932;28;20433;-84
2021/11/06 09:43:24;;;;;;;4.45;3.10;;;17.30;74.00;;;;;;5073483;28;20025;-84
2021/11/06 09:45:50;;;;;;;3.70;2.97;;;18.20;73.20;;;;;;5054836;28;20523;-85
2021/11/06 09:48:15;;;;;;;4.43;3.03;;;19.00;70.10;;;;;;5054235;28;20025;-85
2021/11/06 09:50:41;;;;;;;3.25;2.47;;;19.70;68.50;;;;;;5055324;28;20045;-85
2021/11/06 09:53:07;;;;;;;3.63;2.97;;;20.30;67.10;;;;;;5080415;28;20056;-82
2021/11/06 09:55:33;;;;;;;3.63;2.58;;;20.80;65.90;;;;;;5078957;28;20035;-84
2021/11/06 09:57:59;;;;;;;5.28;2.80;;;21.20;63.40;;;;;;5038177;28;20054;-82
2021/11/06 10:00:25;;;;;;;3.00;2.33;;;21.60;61.30;;;;;;5076803;28;20032;-87
2021/11/06 10:02:56;;;;;;;3.85;2.90;;;21.80;60.30;;;;;;5072819;28;20059;-88
2021/11/06 10:05:52;;;;;;;2.58;2.33;;;21.90;58.80;;;;;;5058681;28;20078;-87
2021/11/06 10:08:51;;;;;;;3.08;2.40;;;21.80;48.00;;;;;;5071564;28;20041;-91
2021/11/06 10:11:19;;;;;;;;;;;21.80;51.20;;;;;;5099550;28;20048;-90
2021/11/06 10:13:49;;;;;;;8.60;5.90;;;21.70;49.50;;;;;;5083817;28;19904;-89
2021/11/06 10:16:16;;;;;;;;;;;22.00;53.50;;;;;;5098203;28;20535;-88
2021/11/06 10:18:42;;;;;;;6.57;4.82;;;22.00;46.00;;;;;;5097211;28;19998;-89
2021/11/06 10:21:08;;;;;;;5.57;3.58;;;22.40;55.80;;;;;;5081226;28;20132;-89
2021/11/06 10:23:43;;;;;;;4.13;2.78;;;22.90;56.00;;;;;;5099454;28;20020;-89
2021/11/06 10:26:18;;;;;;;4.03;2.88;;;23.30;50.50;;;;;;5076142;28;20046;-89
2021/11/06 10:28:52;;;;;;;4.63;3.00;;;23.50;51.60;;;;;;5075006;28;20039;-88
2021/11/06 10:31:19;;;;;;;4.05;2.80;;;23.20;50.00;;;;;;5093173;28;20028;-90
2021/11/06 10:33:49;;;;;;;3.25;2.50;;;22.80;52.00;;;;;;5073625;28;20035;-89
2021/11/06 10:36:27;;;;;;;4.28;2.63;;;22.90;52.40;;;;;;5056804;28;20032;-85
2021/11/06 10:39:13;;;;;;;3.47;2.58;;;23.30;52.10;;;;;;5053673;28;20749;-85
2021/11/06 10:41:40;;;;;;;3.33;2.75;;;23.60;47.30;;;;;;5056771;28;20127;-85
2021/11/06 10:44:08;;;;;;;3.08;2.33;;;23.80;50.60;;;;;;5069353;28;20036;-87
2021/11/06 10:46:35;;;;;;;3.17;2.40;;;24.10;50.20;;;;;;5072526;28;20028;-85
2021/11/06 10:49:23;;;;;;;2.83;2.53;;;24.00;49.10;;;;;;5091045;28;20473;-90
2021/11/06 10:52:00;;;;;;;9.65;6.93;;;23.90;49.10;;;;;;5090808;28;20032;-91
2021/11/06 10:54:25;;;;;;;9.00;6.93;;;23.40;45.20;;;;;;5081605;28;20035;-88
2021/11/06 10:56:55;;;;;;;6.55;4.22;;;22.80;49.40;;;;;;5077000;28;20032;-86
2021/11/06 10:59:22;;;;;;;4.72;3.65;;;22.40;49.20;;;;;;5095902;28;20024;-87
2021/11/06 11:01:53;;;;;;;3.90;3.00;;;22.10;48.80;;;;;;5062896;28;20039;-86
2021/11/06 11:04:20;;;;;;;3.42;2.63;;;21.90;49.20;;;;;;5072405;28;20050;-87
2021/11/06 11:06:54;;;;;;;4.18;2.80;;;21.80;48.90;;;;;;5055821;28;20422;-87
2021/11/06 11:09:22;;;;;;;3.50;2.42;;;21.80;49.00;;;;;;5074835;28;20116;-87
2021/11/06 11:11:50;;;;;;;4.57;2.63;;;21.90;49.20;;;;;;5087199;28;20024;-88
2021/11/06 11:14:30;;;;;;;4.90;2.65;;;21.90;49.20;;;;;;5087112;28;20031;-86
2021/11/06 11:17:02;;;;;;;3.63;2.70;;;22.00;45.40;;;;;;5057745;28;20029;-85
2021/11/06 11:19:49;;;;;;;3.10;2.35;;;21.70;47.70;;;;;;5075588;28;20467;-85
2021/11/06 11:22:22;;;;;;;23.67;17.02;;;21.60;48.40;;;;;;5075439;28;20028;-88
2021/11/06 11:24:48;;;;;;;14.95;11.20;;;21.40;47.30;;;;;;5075816;28;20111;-85
2021/11/06 11:27:16;;;;;;;8.82;6.28;;;21.20;48.90;;;;;;5057735;28;20025;-85
2021/11/06 11:29:43;;;;;;;5.30;4.30;;;20.90;48.80;;;;;;5073900;28;20036;-87
2021/11/06 11:32:11;;;;;;;5.88;3.88;;;20.70;48.80;;;;;;5055775;28;20517;-86
2021/11/06 11:34:49;;;;;;;3.67;2.85;;;20.20;48.10;;;;;;5055304;28;20123;-86
2021/11/06 11:37:30;;;;;;;3.97;2.75;;;19.80;48.30;;;;;;5073247;28;20340;-86
2021/11/06 11:39:59;;;;;;;4.07;2.60;;;19.60;49.30;;;;;;5072835;28;20028;-86
2021/11/06 11:42:45;;;;;;;3.83;2.60;;;19.50;49.40;;;;;;5055233;28;20060;-86
2021/11/06 11:45:40;;;;;;;3.88;2.53;;;19.50;49.50;;;;;;5055645;28;20100;-87
2021/11/06 11:48:14;;;;;;;4.60;2.72;;;19.80;46.50;;;;;;5056318;28;20513;-86
2021/11/06 11:50:42;;;;;;;4.70;2.80;;;20.20;49.10;;;;;;5075163;28;20111;-85
2021/11/06 11:53:20;;;;;;;4.55;2.70;;;20.40;49.10;;;;;;5076047;28;20506;-87
2021/11/06 11:55:51;;;;;;;3.60;2.53;;;20.50;48.90;;;;;;5056696;28;20032;-84
2021/11/06 11:58:26;;;;;;;3.85;2.80;;;20.40;48.30;;;;;;5073482;28;20393;-85
2021/11/06 12:00:57;;;;;;;3.25;2.60;;;19.90;48.50;;;;;;5074628;28;20074;-84
2021/11/06 12:03:43;;;;;;;4.13;2.85;;;19.60;49.50;;;;;;5057107;28;20032;-84
2021/11/06 12:06:39;;;;;;;4.22;3.13;;;19.60;49.50;;;;;;5074725;28;20028;-83
2021/11/06 12:09:11;;;;;;;3.10;2.42;;;20.10;47.70;;;;;;5074658;28;20024;-84
2021/11/06 12:11:56;;;;;;;3.78;2.65;;;21.10;49.80;;;;;;5074533;28;20128;-84
2021/11/06 12:14:23;;;;;;;3.22;2.42;;;21.80;46.70;;;;;;5073310;28;20474;-85
2021/11/06 12:16:58;;;;;;;3.42;2.70;;;22.30;47.70;;;;;;5056666;28;20021;-86
2021/11/06 12:19:37;;;;;;;3.55;2.60;;;22.80;46.90;;;;;;5074502;28;20111;-87
2021/11/06 12:22:08;;;;;;;4.93;2.45;;;23.20;43.70;;;;;;5057431;28;20364;-87
2021/11/06 12:24:34;;;;;;;4.00;2.42;;;23.40;44.60;;;;;;5072918;28;20020;-86
2021/11/06 12:27:03;;;;;;;3.13;2.45;;;23.00;43.90;;;;;;5074306;28;20035;-85
2021/11/06 12:29:36;;;;;;;3.30;2.60;;;22.30;44.80;;;;;;5074375;28;20031;-84
2021/11/06 12:32:14;;;;;;;3.42;2.47;;;22.30;43.60;;;;;;5074331;28;20027;-85
2021/11/06 12:34:56;;;;;;;3.38;2.50;;;22.30;42.80;;;;;;5056171;28;20032;-86
2021/11/06 12:37:37;;;;;;;3.83;2.50;;;22.40;43.70;;;;;;5056134;28;20039;-86
2021/11/06 12:40:18;;;;;;;3.55;2.30;;;22.40;42.20;;;;;;5074184;28;20028;-86
2021/11/06 12:43:02;;;;;;;3.38;2.40;;;22.40;40.90;;;;;;5056461;28;20374;-86
2021/11/06 12:45:29;;;;;;;3.42;2.60;;;22.50;41.00;;;;;;5074418;28;20482;-86